createdAt,value
2022-07-26T00:00:13.174Z,1.42
2022-07-26T00:02:47.535Z,1.50
2022-07-26T00:05:16.174Z,1.80
2022-07-26T00:07:43.484Z,1.65
2022-07-26T00:10:10.657Z,1.52
2022-07-26T00:12:38.258Z,1.88
2022-07-26T00:15:06.148Z,1.40
2022-07-26T00:17:33.277Z,1.65
2022-07-26T00:20:00.402Z,1.60
2022-07-26T00:22:39.013Z,1.48
2022-07-26T00:25:07.545Z,1.60
2022-07-26T00:27:38.063Z,1.40
2022-07-26T00:30:06.686Z,1.30
2022-07-26T00:32:33.927Z,1.35
2022-07-26T00:35:01.340Z,1.60
2022-07-26T00:37:28.371Z,1.40
2022-07-26T00:39:55.465Z,1.27
2022-07-26T00:42:22.601Z,1.38
2022-07-26T00:44:49.710Z,1.38
2022-07-26T00:47:16.890Z,1.50
2022-07-26T00:49:44.175Z,1.77
2022-07-26T00:52:11.598Z,1.45
2022-07-26T00:54:39.739Z,1.42
2022-07-26T00:57:07.305Z,1.33
2022-07-26T00:59:34.435Z,1.50
2022-07-26T01:02:02.124Z,1.10
2022-07-26T01:04:29.394Z,1.73
2022-07-26T01:06:56.789Z,1.75
2022-07-26T01:09:23.990Z,1.55
2022-07-26T01:11:51.430Z,1.50
2022-07-26T01:14:22.464Z,1.70
2022-07-26T01:16:49.566Z,2.28
2022-07-26T01:19:16.940Z,1.80
2022-07-26T01:21:44.020Z,1.50
2022-07-26T01:24:11.388Z,1.42
2022-07-26T01:26:38.759Z,1.70
2022-07-26T01:29:06.009Z,1.70
2022-07-26T01:31:33.146Z,1.73
2022-07-26T01:34:00.442Z,1.92
2022-07-26T01:36:27.590Z,1.85
2022-07-26T01:38:54.621Z,1.80
2022-07-26T01:41:31.631Z,1.92
2022-07-26T01:44:06.067Z,1.70
2022-07-26T01:46:33.494Z,1.67
2022-07-26T01:49:01.883Z,1.33
2022-07-26T01:51:29.277Z,1.90
2022-07-26T01:53:56.559Z,1.77
2022-07-26T01:56:23.648Z,1.58
2022-07-26T01:58:50.736Z,1.77
2022-07-26T02:01:37.918Z,2.08
2022-07-26T02:04:05.317Z,1.50
2022-07-26T02:06:32.629Z,1.75
2022-07-26T02:09:01.924Z,1.40
2022-07-26T02:11:29.337Z,1.70
2022-07-26T02:13:56.603Z,1.45
2022-07-26T02:16:24.130Z,1.75
2022-07-26T02:18:51.303Z,1.50
2022-07-26T02:21:18.397Z,1.88
2022-07-26T02:23:45.448Z,1.58
2022-07-26T02:26:12.586Z,1.58
2022-07-26T02:28:39.684Z,1.67
2022-07-26T02:31:06.807Z,1.90
2022-07-26T02:33:33.959Z,1.60
2022-07-26T02:36:01.074Z,1.75
2022-07-26T02:38:28.135Z,1.40
2022-07-26T02:40:55.222Z,1.77
2022-07-26T02:43:22.342Z,1.73
2022-07-26T02:46:01.622Z,1.67
2022-07-26T02:48:29.543Z,1.60
2022-07-26T02:50:56.708Z,2.00
2022-07-26T02:53:23.760Z,2.10
2022-07-26T02:55:50.778Z,1.67
2022-07-26T02:58:17.855Z,1.58
2022-07-26T03:00:44.924Z,1.85
2022-07-26T03:03:14.126Z,2.10
2022-07-26T03:05:41.407Z,1.63
2022-07-26T03:08:08.679Z,1.85
2022-07-26T03:10:35.838Z,1.55
2022-07-26T03:13:03.047Z,1.80
2022-07-26T03:15:30.241Z,1.90
2022-07-26T03:17:57.388Z,1.95
2022-07-26T03:20:24.556Z,1.98
2022-07-26T03:22:51.771Z,1.98
2022-07-26T03:25:18.859Z,2.10
2022-07-26T03:27:45.985Z,2.10
2022-07-26T03:30:13.450Z,2.08
2022-07-26T03:32:40.677Z,2.15
2022-07-26T03:35:08.430Z,2.25
2022-07-26T03:37:45.065Z,2.45
2022-07-26T03:40:14.295Z,2.40
2022-07-26T03:42:41.350Z,2.20
2022-07-26T03:45:09.544Z,2.17
2022-07-26T03:47:37.213Z,2.10
2022-07-26T03:50:05.694Z,2.20
2022-07-26T03:52:32.793Z,2.20
2022-07-26T03:55:00.125Z,2.30
2022-07-26T03:57:28.227Z,2.40
2022-07-26T03:59:55.776Z,1.90
2022-07-26T04:02:22.979Z,2.17
2022-07-26T04:04:50.141Z,1.80
2022-07-26T04:07:17.229Z,2.42
2022-07-26T04:09:44.880Z,2.45
2022-07-26T04:12:11.966Z,2.13
2022-07-26T04:14:42.382Z,2.28
2022-07-26T04:17:09.508Z,2.72
2022-07-26T04:19:37.537Z,1.98
2022-07-26T04:22:07.039Z,2.65
2022-07-26T04:24:34.097Z,2.80
2022-07-26T04:27:01.178Z,2.35
2022-07-26T04:29:28.212Z,2.33
2022-07-26T04:31:55.299Z,2.30
2022-07-26T04:34:22.347Z,2.80
2022-07-26T04:36:49.422Z,2.40
2022-07-26T04:39:16.628Z,2.88
2022-07-26T04:41:43.685Z,2.95
2022-07-26T04:44:11.145Z,2.70
2022-07-26T04:46:38.497Z,2.50
2022-07-26T04:49:12.513Z,2.83
2022-07-26T04:51:39.644Z,2.58
2022-07-26T04:54:06.966Z,3.05
2022-07-26T04:56:34.201Z,2.72
2022-07-26T04:59:01.278Z,2.60
2022-07-26T05:01:28.373Z,2.25
2022-07-26T05:03:55.525Z,2.47
2022-07-26T05:06:22.591Z,3.10
2022-07-26T05:08:51.245Z,2.70
2022-07-26T05:11:18.313Z,3.00
2022-07-26T05:13:45.427Z,2.70
2022-07-26T05:16:12.509Z,2.65
2022-07-26T05:18:45.663Z,3.30
2022-07-26T05:21:16.564Z,3.10
2022-07-26T05:23:43.650Z,2.67
2022-07-26T05:26:12.137Z,2.33
2022-07-26T05:28:39.574Z,2.53
2022-07-26T05:31:07.498Z,2.53
2022-07-26T05:33:34.673Z,2.92
2022-07-26T05:36:01.740Z,3.45
2022-07-26T05:38:28.815Z,3.08
2022-07-26T05:40:55.984Z,2.72
2022-07-26T05:43:23.068Z,3.15
2022-07-26T05:45:50.213Z,3.10
2022-07-26T05:48:17.322Z,2.63
2022-07-26T05:50:44.747Z,3.58
2022-07-26T05:53:11.807Z,3.28
2022-07-26T05:55:38.865Z,3.05
2022-07-26T05:58:06.002Z,3.08
2022-07-26T06:00:33.122Z,3.08
2022-07-26T06:03:00.213Z,3.00
2022-07-26T06:05:27.307Z,3.42
2022-07-26T06:07:54.393Z,3.10
2022-07-26T06:10:21.494Z,3.30
2022-07-26T06:12:48.564Z,2.80
2022-07-26T06:15:16.083Z,3.63
2022-07-26T06:17:43.543Z,3.55
2022-07-26T06:20:11.089Z,2.80
2022-07-26T06:22:38.151Z,2.80
2022-07-26T06:25:05.469Z,3.00
2022-07-26T06:27:32.947Z,3.30
2022-07-26T06:30:00.058Z,3.78
2022-07-26T06:32:27.164Z,3.22
2022-07-26T06:34:54.313Z,3.13
2022-07-26T06:37:21.409Z,4.00
2022-07-26T06:39:48.494Z,3.63
2022-07-26T06:42:15.593Z,3.10
2022-07-26T06:44:42.745Z,3.65
2022-07-26T06:47:09.883Z,3.05
2022-07-26T06:49:36.955Z,3.88
2022-07-26T06:52:04.170Z,3.95
2022-07-26T06:54:31.296Z,4.30
2022-07-26T06:56:58.410Z,3.85
2022-07-26T06:59:25.550Z,3.83
2022-07-26T07:01:59.205Z,3.95
2022-07-26T07:04:27.530Z,3.78
2022-07-26T07:06:54.613Z,3.85
2022-07-26T07:09:22.923Z,4.13
2022-07-26T07:11:53.715Z,3.97
2022-07-26T07:14:23.463Z,4.15
2022-07-26T07:16:50.610Z,4.20
2022-07-26T07:19:17.755Z,3.55
2022-07-26T07:21:44.810Z,3.85
2022-07-26T07:24:12.209Z,3.80
2022-07-26T07:26:39.387Z,4.28
2022-07-26T07:29:06.541Z,4.35
2022-07-26T07:31:48.269Z,3.67
2022-07-26T07:34:17.882Z,4.25
2022-07-26T07:36:47.184Z,3.70
2022-07-26T07:39:17.502Z,3.70
2022-07-26T07:41:48.341Z,3.92
2022-07-26T07:44:15.619Z,3.28
2022-07-26T07:46:42.728Z,3.40
2022-07-26T07:49:11.291Z,3.25
2022-07-26T07:51:38.798Z,3.33
2022-07-26T07:54:06.361Z,3.17
2022-07-26T07:56:33.786Z,3.22
2022-07-26T07:59:01.072Z,3.20
2022-07-26T08:01:39.592Z,3.88
2022-07-26T08:04:08.330Z,3.30
2022-07-26T08:06:35.627Z,3.65
2022-07-26T08:09:03.865Z,3.90
2022-07-26T08:11:33.808Z,3.97
2022-07-26T08:14:01.309Z,3.75
2022-07-26T08:16:28.546Z,3.75
2022-07-26T08:18:58.677Z,4.15
2022-07-26T08:21:26.389Z,3.78
2022-07-26T08:23:56.006Z,4.55
2022-07-26T08:26:23.080Z,3.55
2022-07-26T08:28:59.455Z,4.05
2022-07-26T08:31:27.579Z,3.75
2022-07-26T08:33:54.806Z,3.05
2022-07-26T08:36:21.986Z,4.00
2022-07-26T08:38:49.074Z,3.75
2022-07-26T08:41:17.761Z,3.72
2022-07-26T08:43:53.246Z,4.07
2022-07-26T08:46:25.331Z,4.03
2022-07-26T08:48:53.428Z,4.00
2022-07-26T08:51:23.187Z,3.65
2022-07-26T08:53:51.505Z,3.80
2022-07-26T08:56:18.578Z,4.00
2022-07-26T08:58:45.664Z,3.90
2022-07-26T09:01:13.312Z,3.63
2022-07-26T09:03:41.396Z,3.55
2022-07-26T09:06:21.934Z,4.05
2022-07-26T09:08:50.729Z,3.63
2022-07-26T09:11:33.684Z,3.30
2022-07-26T09:14:01.988Z,2.83
2022-07-26T09:16:29.705Z,2.42
2022-07-26T09:18:57.233Z,2.92
2022-07-26T09:21:28.748Z,3.03
2022-07-26T09:23:55.859Z,2.80
2022-07-26T09:26:25.970Z,3.08
2022-07-26T09:29:03.091Z,2.90
2022-07-26T09:31:30.288Z,2.70
2022-07-26T09:33:58.860Z,3.20
2022-07-26T09:36:26.478Z,2.97
2022-07-26T09:38:54.691Z,3.17
2022-07-26T09:41:22.980Z,3.35
2022-07-26T09:43:53.905Z,3.25
2022-07-26T09:46:22.235Z,3.47
2022-07-26T09:51:47.925Z,3.55
2022-07-26T09:54:19.278Z,3.20
2022-07-26T09:56:47.984Z,3.75
2022-07-26T09:59:16.263Z,3.92
2022-07-26T10:01:44.401Z,3.00
2022-07-26T10:04:12.217Z,3.33
2022-07-26T10:06:39.527Z,3.05
2022-07-26T10:09:06.767Z,3.67
2022-07-26T10:11:43.008Z,4.43
2022-07-26T10:14:28.719Z,4.78
2022-07-26T10:16:55.859Z,4.30
2022-07-26T10:19:41.707Z,3.90
2022-07-26T10:22:31.083Z,1.95
2022-07-26T10:24:59.120Z,1.58
2022-07-26T10:27:39.143Z,1.17
2022-07-26T10:30:22.618Z,1.02
2022-07-26T10:32:52.864Z,1.02
2022-07-26T10:35:43.926Z,0.80
2022-07-26T10:38:13.939Z,0.90
2022-07-26T10:41:01.292Z,1.00
2022-07-26T10:43:44.240Z,0.90
2022-07-26T10:46:17.987Z,1.10
2022-07-26T10:48:57.241Z,0.90
2022-07-26T10:51:25.709Z,0.70
2022-07-26T10:54:06.036Z,0.80
2022-07-26T10:56:34.209Z,0.80
2022-07-26T10:59:01.954Z,0.90
2022-07-26T11:01:42.155Z,0.95
2022-07-26T11:04:24.737Z,0.90
2022-07-26T11:06:52.202Z,0.88
2022-07-26T11:09:20.732Z,1.00
2022-07-26T11:11:48.665Z,1.60
2022-07-26T11:14:17.591Z,1.40
2022-07-26T11:16:46.212Z,1.60
2022-07-26T11:19:17.145Z,1.20
2022-07-26T11:21:44.810Z,1.13
2022-07-26T11:24:12.328Z,1.52
2022-07-26T11:26:43.288Z,1.25
2022-07-26T11:29:10.691Z,1.10
2022-07-26T11:31:51.299Z,1.00
2022-07-26T11:34:27.770Z,1.20
2022-07-26T11:36:56.334Z,1.15
2022-07-26T11:39:24.493Z,1.00
2022-07-26T11:41:52.833Z,1.25
2022-07-26T11:44:21.686Z,1.10
2022-07-26T11:46:49.200Z,1.17
2022-07-26T11:49:19.517Z,1.45
2022-07-26T11:51:54.041Z,1.45
2022-07-26T11:54:25.351Z,1.20
2022-07-26T11:56:52.671Z,1.10
2022-07-26T11:59:20.075Z,1.02
2022-07-26T12:01:49.808Z,1.05
2022-07-26T12:04:21.292Z,0.85
2022-07-26T12:06:48.853Z,1.30
2022-07-26T12:09:32.953Z,1.08
2022-07-26T12:12:00.540Z,1.20
2022-07-26T12:14:28.643Z,1.00
2022-07-26T12:16:56.195Z,0.77
2022-07-26T12:19:26.450Z,0.82
2022-07-26T12:21:58.162Z,1.00
2022-07-26T12:24:55.764Z,0.80
2022-07-26T12:27:25.306Z,0.77
2022-07-26T12:29:53.450Z,0.80
2022-07-26T12:32:21.804Z,1.00
2022-07-26T12:34:56.532Z,0.50
2022-07-26T12:37:30.306Z,1.00
2022-07-26T12:40:19.823Z,1.10
2022-07-26T12:42:49.796Z,0.90
2022-07-26T12:45:21.003Z,1.08
2022-07-26T12:47:49.517Z,1.35
2022-07-26T12:50:17.925Z,1.20
2022-07-26T12:52:45.377Z,1.05
2022-07-26T12:55:15.064Z,0.70
2022-07-26T12:57:47.725Z,1.08
2022-07-26T13:00:15.797Z,1.30
2022-07-26T13:02:43.530Z,1.30
2022-07-26T13:05:11.689Z,1.38
2022-07-26T13:07:39.477Z,1.50
2022-07-26T13:10:32.649Z,1.60
2022-07-26T13:12:54.350Z,1.70
2022-07-26T13:15:21.495Z,1.52
2022-07-26T13:17:48.551Z,1.83
2022-07-26T13:20:16.455Z,1.80
2022-07-26T13:22:44.364Z,2.10
2022-07-26T13:25:11.782Z,1.60
2022-07-26T13:27:42.904Z,1.27
2022-07-26T13:30:12.268Z,1.50
2022-07-26T13:32:39.315Z,1.17
2022-07-26T13:35:06.570Z,1.00
2022-07-26T13:37:33.665Z,1.05
2022-07-26T13:40:00.843Z,0.90
2022-07-26T13:42:28.061Z,0.98
2022-07-26T13:44:55.163Z,0.98
2022-07-26T13:47:22.401Z,0.93
2022-07-26T13:49:49.511Z,0.90
2022-07-26T13:52:17.124Z,1.13
2022-07-26T13:54:44.282Z,1.00
2022-07-26T13:57:11.413Z,0.85
2022-07-26T13:59:38.543Z,1.00
2022-07-26T14:02:05.903Z,0.90
2022-07-26T14:04:33.040Z,0.80
2022-07-26T14:07:00.142Z,0.80
2022-07-26T14:09:27.248Z,0.68
2022-07-26T14:11:54.370Z,0.88
2022-07-26T14:14:21.590Z,0.80
2022-07-26T14:16:49.384Z,0.90
2022-07-26T14:19:16.846Z,0.73
2022-07-26T14:21:47.488Z,1.00
2022-07-26T14:24:26.882Z,0.88
2022-07-26T14:26:58.491Z,1.00
2022-07-26T14:29:26.432Z,1.05
2022-07-26T14:31:53.566Z,0.68
2022-07-26T14:34:20.775Z,0.75
2022-07-26T14:36:47.838Z,0.65
2022-07-26T14:39:15.039Z,0.65
2022-07-26T14:41:42.147Z,0.80
2022-07-26T14:44:09.581Z,0.73
2022-07-26T14:46:37.013Z,0.60
2022-07-26T14:49:04.184Z,0.77
2022-07-26T14:51:31.310Z,0.77
2022-07-26T14:53:58.417Z,0.70
2022-07-26T14:56:25.509Z,0.70
2022-07-26T14:58:52.569Z,0.90
2022-07-26T15:01:19.846Z,0.80
2022-07-26T15:03:47.084Z,0.75
2022-07-26T15:06:14.189Z,0.60
2022-07-26T15:08:41.245Z,0.70
2022-07-26T15:11:08.458Z,0.65
2022-07-26T15:13:35.632Z,0.60
2022-07-26T15:16:02.887Z,0.80
2022-07-26T15:18:30.985Z,0.88
2022-07-26T15:20:58.177Z,0.70
2022-07-26T15:23:26.245Z,0.68
2022-07-26T15:25:53.562Z,0.88
2022-07-26T15:28:20.692Z,0.80
2022-07-26T15:30:47.813Z,0.38
2022-07-26T15:33:15.062Z,0.77
2022-07-26T15:35:42.421Z,0.85
2022-07-26T15:38:09.489Z,0.80
2022-07-26T15:40:36.733Z,0.80
2022-07-26T15:43:03.850Z,0.77
2022-07-26T15:45:32.203Z,1.40
2022-07-26T15:48:11.461Z,0.60
2022-07-26T15:50:45.423Z,0.70
2022-07-26T15:53:16.562Z,0.80
2022-07-26T15:55:43.694Z,0.90
2022-07-26T15:58:10.736Z,0.70
2022-07-26T16:00:38.011Z,1.00
2022-07-26T16:03:05.164Z,0.60
2022-07-26T16:05:33.034Z,0.70
2022-07-26T16:08:00.130Z,0.70
2022-07-26T16:10:27.269Z,0.80
2022-07-26T16:12:54.359Z,0.80
2022-07-26T16:15:21.503Z,0.85
2022-07-26T16:17:48.599Z,1.10
2022-07-26T16:20:19.317Z,0.70
2022-07-26T16:22:47.248Z,0.93
2022-07-26T16:25:15.950Z,1.00
2022-07-26T16:27:43.715Z,0.90
2022-07-26T16:30:11.882Z,0.77
2022-07-26T16:32:39.073Z,0.95
2022-07-26T16:35:06.358Z,1.13
2022-07-26T16:37:33.440Z,0.68
2022-07-26T16:40:00.677Z,0.90
2022-07-26T16:42:27.798Z,0.73
2022-07-26T16:44:54.935Z,0.70
2022-07-26T16:47:22.114Z,1.00
2022-07-26T16:49:51.100Z,1.40
2022-07-26T16:52:18.389Z,0.85
2022-07-26T16:54:45.675Z,1.42
2022-07-26T16:57:14.797Z,0.98
2022-07-26T16:59:42.210Z,1.00
2022-07-26T17:02:09.444Z,1.38
2022-07-26T17:04:37.974Z,1.38
2022-07-26T17:07:24.517Z,1.60
2022-07-26T17:09:52.593Z,1.30
2022-07-26T17:12:19.938Z,1.40
2022-07-26T17:14:47.278Z,1.67
2022-07-26T17:17:22.140Z,1.42
2022-07-26T17:19:50.130Z,1.90
2022-07-26T17:22:18.005Z,1.48
2022-07-26T17:24:45.456Z,1.50
2022-07-26T17:27:20.233Z,1.48
2022-07-26T17:29:47.632Z,1.20
2022-07-26T17:32:17.011Z,0.90
2022-07-26T17:34:46.560Z,0.80
2022-07-26T17:37:15.498Z,1.67
2022-07-26T17:39:52.771Z,1.52
2022-07-26T17:42:21.783Z,1.60
2022-07-26T17:44:49.162Z,1.40
2022-07-26T17:47:28.211Z,1.27
2022-07-26T17:50:01.379Z,1.40
2022-07-26T17:52:37.908Z,1.10
2022-07-26T17:55:05.933Z,1.60
2022-07-26T17:57:33.243Z,1.35
2022-07-26T18:00:06.329Z,1.50
2022-07-26T18:02:34.003Z,1.92
2022-07-26T18:05:02.740Z,1.60
2022-07-26T18:07:30.269Z,1.83
2022-07-26T18:09:57.486Z,1.55
2022-07-26T18:12:24.826Z,1.70
2022-07-26T18:14:52.820Z,1.40
2022-07-26T18:17:23.535Z,1.48
2022-07-26T18:19:54.381Z,1.75
2022-07-26T18:22:21.864Z,1.60
2022-07-26T18:24:49.024Z,1.60
2022-07-26T18:27:16.193Z,1.73
2022-07-26T18:29:43.530Z,2.08
2022-07-26T18:32:10.639Z,2.08
2022-07-26T18:34:37.795Z,1.60
2022-07-26T18:37:05.324Z,1.35
2022-07-26T18:39:33.141Z,1.70
2022-07-26T18:42:00.747Z,1.60
2022-07-26T18:44:27.984Z,1.77
2022-07-26T18:46:56.391Z,1.80
2022-07-26T18:49:30.844Z,1.73
2022-07-26T18:52:04.126Z,2.00
2022-07-26T18:54:33.280Z,1.85
2022-07-26T18:57:00.588Z,2.28
2022-07-26T18:59:29.259Z,1.67
2022-07-26T19:01:58.409Z,2.20
2022-07-26T19:04:26.155Z,1.90
2022-07-26T19:06:53.349Z,1.60
2022-07-26T19:09:20.853Z,2.10
2022-07-26T19:11:48.027Z,1.80
2022-07-26T19:14:17.546Z,2.15
2022-07-26T19:16:45.198Z,2.10
2022-07-26T19:19:12.796Z,1.80
2022-07-26T19:21:44.978Z,1.60
2022-07-26T19:24:12.292Z,1.77
2022-07-26T19:26:43.144Z,2.00
2022-07-26T19:29:11.296Z,2.28
2022-07-26T19:31:40.571Z,2.13
2022-07-26T19:34:08.126Z,2.28
2022-07-26T19:36:35.437Z,2.00
2022-07-26T19:39:04.044Z,2.03
2022-07-26T19:41:33.695Z,1.90
2022-07-26T19:44:00.818Z,2.17
2022-07-26T19:46:28.852Z,1.80
2022-07-26T19:48:56.388Z,2.45
2022-07-26T19:51:23.923Z,2.10
2022-07-26T19:53:51.594Z,1.98
2022-07-26T19:56:18.799Z,2.10
2022-07-26T19:58:49.052Z,2.00
2022-07-26T20:01:19.149Z,1.90
2022-07-26T20:03:46.266Z,1.45
2022-07-26T20:06:13.359Z,1.80
2022-07-26T20:08:40.449Z,1.60
2022-07-26T20:11:07.503Z,1.60
2022-07-26T20:13:35.302Z,1.98
2022-07-26T20:16:02.518Z,1.20
2022-07-26T20:18:30.784Z,1.70
2022-07-26T20:20:57.994Z,1.80
2022-07-26T20:23:25.578Z,1.67
2022-07-26T20:25:52.677Z,1.38
2022-07-26T20:28:19.819Z,1.60
2022-07-26T20:30:48.258Z,1.48
2022-07-26T20:33:16.418Z,1.85
2022-07-26T20:35:43.482Z,1.40
2022-07-26T20:38:10.631Z,1.30
2022-07-26T20:40:37.813Z,1.50
2022-07-26T20:43:06.298Z,1.40
2022-07-26T20:45:33.415Z,1.20
2022-07-26T20:48:00.521Z,1.23
2022-07-26T20:50:27.713Z,1.40
2022-07-26T20:52:54.851Z,1.45
2022-07-26T20:55:22.829Z,1.30
2022-07-26T20:57:50.125Z,1.42
2022-07-26T21:00:18.059Z,1.27
2022-07-26T21:02:45.573Z,1.30
2022-07-26T21:05:13.845Z,1.20
2022-07-26T21:07:55.769Z,1.33
2022-07-26T21:10:26.694Z,1.38
2022-07-26T21:12:57.050Z,1.42
2022-07-26T21:15:24.213Z,1.08
2022-07-26T21:17:52.340Z,1.33
2022-07-26T21:20:19.562Z,1.40
2022-07-26T21:22:46.626Z,1.40
2022-07-26T21:25:14.082Z,1.00
2022-07-26T21:27:41.960Z,1.38
2022-07-26T21:30:09.542Z,1.33
2022-07-26T21:32:36.605Z,1.30
2022-07-26T21:35:03.800Z,1.48
2022-07-26T21:37:30.943Z,1.13
2022-07-26T21:40:01.164Z,1.25
2022-07-26T21:42:28.415Z,1.40
2022-07-26T21:44:55.476Z,1.35
2022-07-26T21:47:22.583Z,1.40
2022-07-26T21:49:49.665Z,1.13
2022-07-26T21:52:16.721Z,1.25
2022-07-26T21:54:43.770Z,1.02
2022-07-26T21:57:10.914Z,1.17
2022-07-26T21:59:37.978Z,1.10
2022-07-26T22:02:05.477Z,1.05
2022-07-26T22:04:32.685Z,1.27
2022-07-26T22:06:59.848Z,1.13
2022-07-26T22:09:26.886Z,1.10
2022-07-26T22:11:53.996Z,1.08
2022-07-26T22:14:22.187Z,1.38
2022-07-26T22:16:49.525Z,1.45
2022-07-26T22:19:16.722Z,1.10
2022-07-26T22:21:44.020Z,1.00
2022-07-26T22:24:11.118Z,1.23
2022-07-26T22:26:40.612Z,1.20
2022-07-26T22:29:09.024Z,1.10
2022-07-26T22:31:36.500Z,0.93
2022-07-26T22:34:03.643Z,1.13
2022-07-26T22:36:30.737Z,1.40
2022-07-26T22:38:57.880Z,1.50
2022-07-26T22:41:25.053Z,1.48
2022-07-26T22:43:53.208Z,1.05
2022-07-26T22:46:27.863Z,1.50
2022-07-26T22:48:56.451Z,1.20
2022-07-26T22:51:23.567Z,1.00
2022-07-26T22:53:50.653Z,1.20
2022-07-26T22:56:19.872Z,1.23
2022-07-26T22:58:47.419Z,1.20
2022-07-26T23:01:16.375Z,1.10
2022-07-26T23:03:43.578Z,1.05
2022-07-26T23:06:23.861Z,1.00
2022-07-26T23:08:59.381Z,1.38
2022-07-26T23:11:26.466Z,1.10
2022-07-26T23:13:58.790Z,1.10
2022-07-26T23:16:26.501Z,1.27
2022-07-26T23:18:53.620Z,1.48
2022-07-26T23:21:20.703Z,1.30
2022-07-26T23:23:47.770Z,1.10
2022-07-26T23:26:17.934Z,1.73
2022-07-26T23:28:45.026Z,1.15
2022-07-26T23:31:12.400Z,1.38
2022-07-26T23:33:52.366Z,1.25
2022-07-26T23:36:25.316Z,1.35
2022-07-26T23:38:52.457Z,1.20
2022-07-26T23:41:19.583Z,1.40
2022-07-26T23:43:46.682Z,1.38
2022-07-26T23:46:14.784Z,1.40
2022-07-26T23:48:42.046Z,0.98
2022-07-26T23:51:09.167Z,1.50
2022-07-26T23:53:36.301Z,1.52
2022-07-26T23:56:03.500Z,1.45
2022-07-26T23:58:30.683Z,1.60
